Stations météo

réclame
Mon MeteoGroup
Retie, Belgique (6464): Température de l'air & dewpoint: 12.11.2018 05:00:00 - 18.11.2018 05:00:00 (CET)Retie, Belgique (6464): Vitesse du vent & gusts: 12.11.2018 05:00:00 - 18.11.2018 05:00:00 (CET)Retie, Belgique (6464): Direction du vent: 12.11.2018 05:00:00 - 18.11.2018 05:00:00 (CET)Retie, Belgique (6464): reduced air pressure: 12.11.2018 05:00:00 - 18.11.2018 05:00:00 (CET)Retie, Belgique (6464): Ensoleillement: 12.11.2018 05:00:00 - 18.11.2018 05:00:00 (CET)Retie, Belgique (6464): Quantités de précipitations: 12.11.2018 05:00:00 - 18.11.2018 05:00:00 (CET)
Date & Time tt [°C] td [°C] ff [km/h] ff [knt] fx [km/h] fx [knt] dd ppp [hPa] sd [min] rr [mm]
18.11.2018 05:00:00 - - - - - - - - - -
18.11.2018 04:00:00 1,2 -1,5 9 5 19 10 NE 1030,3 0 0,0
18.11.2018 03:00:00 2,2 -1,3 12 6 24 13 ENE 1030,4 0 0,0
18.11.2018 02:00:00 2,6 -1,1 11 6 19 10 ENE 1030,1 0 0,0
18.11.2018 01:00:00 2,9 -0,9 11 6 22 12 NE 1030,2 0 0,0
18.11.2018 00:00:00 3,4 -0,3 10 6 21 11 ENE 1030,2 0 0,0
17.11.2018 23:00:00 4,0 0,2 11 6 23 12 ENE 1030,1 0 0,0
17.11.2018 22:00:00 4,4 0,2 11 6 20 11 ENE 1030,2 0 0,0
17.11.2018 21:00:00 5,4 0,3 12 7 27 15 ENE 1029,6 0 0,0
17.11.2018 20:00:00 6,0 0,8 13 7 27 15 ENE 1030,0 0 0,0
17.11.2018 19:00:00 6,4 1,6 14 8 24 13 ENE 1029,5 0 0,0
17.11.2018 18:00:00 6,8 2,2 11 6 20 11 ENE 1029,6 0 0,0
17.11.2018 17:00:00 7,0 2,4 7 4 18 10 NE 1029,6 - -
17.11.2018 16:00:00 9,0 2,2 14 8 27 15 ENE 1029,6 60 0,0
17.11.2018 15:00:00 9,5 1,7 16 8 29 16 ENE 1029,7 60 0,0
17.11.2018 14:00:00 9,0 2,0 18 10 33 18 ENE 1030,0 60 0,0
17.11.2018 13:00:00 8,2 2,4 18 10 32 17 ENE 1030,0 60 0,0
17.11.2018 12:00:00 7,2 2,1 17 9 30 16 E 1030,1 60 0,0
17.11.2018 11:00:00 5,9 2,0 14 8 26 14 E 1030,6 60 0,0
17.11.2018 10:00:00 4,5 1,4 16 8 26 14 E 1030,2 60 0,0
17.11.2018 09:00:00 3,5 1,1 12 7 20 11 E 1030,1 34 0,0
17.11.2018 08:00:00 3,0 1,2 12 7 26 14 ENE 1029,9 0 0,0
17.11.2018 07:00:00 2,6 1,0 11 6 19 10 ENE 1029,4 0 0,0
17.11.2018 06:00:00 2,8 1,2 11 6 19 10 ENE 1029,3 0 0,0
17.11.2018 05:00:00 2,8 1,3 11 6 18 10 ENE 1029,3 - -
17.11.2018 04:00:00 2,7 1,7 7 4 - - ENE 1029,5 - -
17.11.2018 03:00:00 2,0 1,5 5 3 10 5 ENE 1029,7 0 0,0
17.11.2018 02:00:00 1,3 1,0 4 2 10 5 NE 1029,3 0 0,0
17.11.2018 01:00:00 2,3 1,4 4 2 10 5 ENE 1028,9 0 0,0
17.11.2018 00:00:00 1,5 0,8 4 2 11 6 E 1028,8 0 0,0
16.11.2018 23:00:00 4,4 2,4 8 5 14 8 E 1028,9 0 0,0
16.11.2018 22:00:00 5,6 3,0 8 4 16 9 E 1028,3 0 0,0
16.11.2018 21:00:00 6,5 3,8 9 5 16 9 E 1028,2 0 0,0
16.11.2018 20:00:00 3,1 2,7 6 3 12 7 ENE 1028,1 0 0,0
16.11.2018 19:00:00 1,4 1,4 4 2 4 2 N 1027,9 0 0,0
16.11.2018 18:00:00 2,1 2,0 0 0 3 2 N 1028,2 0 0,0
16.11.2018 17:00:00 4,0 3,8 0 0 6 3 N 1028,1 11 0,0
16.11.2018 16:00:00 4,9 4,6 4 2 - - NW 1028,1 - -
16.11.2018 15:00:00 4,5 4,5 0 0 12 6 N 1028,2 2 0,0
16.11.2018 14:00:00 4,3 4,2 6 3 11 6 E 1028,4 0 0,0
16.11.2018 13:00:00 4,3 4,3 4 2 10 6 E 1028,6 0 0,0
16.11.2018 12:00:00 4,1 4,1 6 4 15 8 E 1028,5 0 0,0
16.11.2018 11:00:00 4,2 4,2 9 5 13 7 E 1028,8 0 0,0
16.11.2018 10:00:00 3,7 3,7 4 2 - - E 1028,3 0 0,0
16.11.2018 09:00:00 2,9 2,9 8 4 9 5 E 1028,1 0 0,0
16.11.2018 08:00:00 2,5 2,5 7 4 10 5 E 1027,6 0 0,0
16.11.2018 07:00:00 2,1 2,1 7 4 10 6 E 1027,3 0 0,0
16.11.2018 06:00:00 1,5 1,5 4 2 7 4 ESE 1026,9 - -
16.11.2018 05:00:00 1,0 1,0 5 3 7 4 SE 1026,8 0 0,0
16.11.2018 04:00:00 0,4 0,3 4 2 6 4 ESE 1026,5 0 0,0
16.11.2018 03:00:00 0,4 0,4 5 3 7 4 SE 1026,7 0 0,0
16.11.2018 02:00:00 1,1 1,1 5 3 6 4 E 1026,3 0 0,0
16.11.2018 01:00:00 2,2 1,9 4 2 7 4 E 1026,3 0 0,0
16.11.2018 00:00:00 3,2 2,9 4 2 10 5 SE 1025,9 0 0,0
15.11.2018 23:00:00 3,2 3,0 7 4 9 5 ESE 1025,7 0 0,0
15.11.2018 22:00:00 4,1 3,6 6 3 9 5 E 1025,4 0 0,0
15.11.2018 21:00:00 4,7 4,1 6 3 8 4 E 1025,2 0 0,0
15.11.2018 20:00:00 6,1 5,0 6 4 12 7 ESE 1024,9 0 0,0
15.11.2018 19:00:00 7,4 5,7 7 4 12 6 E 1024,8 0 0,0
15.11.2018 18:00:00 9,2 6,5 8 4 14 8 E 1024,4 0 0,0
15.11.2018 17:00:00 11,2 6,9 11 6 15 8 E 1024,2 44 0,0
15.11.2018 16:00:00 13,4 7,0 10 5 14 8 E 1024,4 60 0,0
15.11.2018 15:00:00 14,3 7,3 7 4 13 7 ESE 1024,5 60 0,0
15.11.2018 14:00:00 13,7 7,6 9 5 11 6 E 1024,6 60 0,0
15.11.2018 13:00:00 12,9 7,0 7 4 14 7 ESE 1025,0 60 0,0
15.11.2018 12:00:00 10,6 6,3 10 5 16 9 ESE 1025,4 60 0,0
15.11.2018 11:00:00 9,3 5,7 9 5 13 7 ESE 1025,9 60 0,0
15.11.2018 10:00:00 6,8 5,0 7 4 10 5 E 1025,7 60 0,0
15.11.2018 09:00:00 4,7 4,1 6 3 10 6 ESE 1025,4 40 0,0
15.11.2018 08:00:00 2,7 2,6 5 3 10 5 ESE 1025,2 0 0,0
15.11.2018 07:00:00 3,0 2,9 4 2 6 3 ESE 1025,1 0 0,0
15.11.2018 06:00:00 3,7 3,5 5 3 8 4 E 1025,1 0 0,0
15.11.2018 05:00:00 4,3 3,9 6 3 9 5 E 1025,1 0 0,0
15.11.2018 04:00:00 4,3 3,9 6 3 8 5 E 1025,1 0 0,0
15.11.2018 03:00:00 4,5 4,0 6 3 9 5 E 1025,4 0 0,0
15.11.2018 02:00:00 4,1 3,8 6 4 10 5 E 1025,4 0 0,0
15.11.2018 01:00:00 3,9 3,6 7 4 8 4 E 1025,6 0 0,0
15.11.2018 00:00:00 4,2 3,7 5 3 6 4 E 1025,6 0 0,0
14.11.2018 23:00:00 4,9 4,3 4 2 7 4 ESE 1025,7 0 0,0
14.11.2018 22:00:00 5,3 4,7 4 2 8 4 ESE 1025,5 0 0,0
14.11.2018 21:00:00 5,0 4,7 4 2 8 5 E 1025,9 0 0,0
14.11.2018 20:00:00 5,4 4,8 6 3 8 5 ESE 1026,0 0 0,0
14.11.2018 19:00:00 5,3 5,0 4 2 6 3 E 1026,4 0 0,0
14.11.2018 18:00:00 6,5 5,3 5 3 7 4 E 1026,6 0 0,0
14.11.2018 17:00:00 9,7 7,3 6 3 11 6 ESE 1026,8 12 0,0
14.11.2018 16:00:00 11,3 8,0 7 4 14 8 SSE 1026,9 29 0,0
14.11.2018 15:00:00 12,4 8,0 11 6 16 9 SSE 1027,1 60 0,0
14.11.2018 14:00:00 12,9 8,2 8 5 16 9 S 1027,6 60 0,0
14.11.2018 13:00:00 12,9 8,4 11 6 18 10 S 1027,9 60 0,0
14.11.2018 12:00:00 12,1 8,5 7 4 13 7 S 1028,4 60 0,0
14.11.2018 11:00:00 10,0 7,9 8 4 12 7 SSE 1028,7 60 0,0
14.11.2018 10:00:00 7,9 6,9 4 2 11 6 S 1028,9 60 0,0
14.11.2018 09:00:00 6,0 5,8 6 4 11 6 S 1028,6 39 0,0
14.11.2018 08:00:00 5,4 5,3 5 3 9 5 SSE 1028,4 0 0,0
14.11.2018 07:00:00 5,7 5,4 7 4 13 7 S 1028,1 0 0,0
14.11.2018 06:00:00 5,5 5,3 8 4 11 6 SSE 1028,3 0 0,0
14.11.2018 05:00:00 5,3 5,1 4 2 7 4 SSE 1028,7 - -
14.11.2018 04:00:00 6,5 6,1 4 2 - - SSE 1029,1 - -
14.11.2018 03:00:00 7,3 6,5 6 3 9 5 S 1029,6 0 0,0
14.11.2018 02:00:00 7,9 6,8 5 3 9 5 S 1029,5 0 0,0
14.11.2018 01:00:00 8,4 7,2 4 2 9 5 S 1029,6 0 0,0
14.11.2018 00:00:00 9,3 7,8 5 3 11 6 S 1029,6 0 0,0
13.11.2018 23:00:00 8,6 7,5 5 3 8 4 SW 1029,4 0 0,0
13.11.2018 22:00:00 8,3 7,2 5 3 9 5 SSW 1029,3 0 0,0
13.11.2018 21:00:00 8,8 7,4 5 3 9 5 SSW 1028,5 0 0,0
13.11.2018 20:00:00 9,0 7,4 4 2 14 7 SSW 1028,4 0 0,0
13.11.2018 19:00:00 9,9 7,7 7 4 13 7 SW 1027,9 0 0,0
13.11.2018 18:00:00 10,7 7,5 8 4 23 12 SW 1027,2 0 0,0
13.11.2018 17:00:00 11,7 8,0 12 6 24 13 SW 1026,8 12 0,0
13.11.2018 16:00:00 12,7 7,8 16 8 31 17 SW 1025,9 45 0,0
13.11.2018 15:00:00 12,8 8,0 19 11 40 21 WSW 1025,2 35 0,0
13.11.2018 14:00:00 12,8 7,8 22 12 35 19 WSW 1024,8 19 0,0
13.11.2018 13:00:00 13,3 8,0 22 12 41 22 SW 1024,0 43 0,0
13.11.2018 12:00:00 12,3 8,2 21 12 40 21 SW 1023,7 36 0,0
13.11.2018 11:00:00 11,4 8,2 21 11 40 22 SW 1023,2 0 0,2
13.11.2018 10:00:00 11,4 8,7 16 9 34 18 SW 1022,1 30 0,0
13.11.2018 09:00:00 10,6 8,5 14 7 25 14 SSW 1021,5 0 0,0
13.11.2018 08:00:00 10,4 8,5 16 8 29 15 SSW 1021,2 0 0,0
13.11.2018 07:00:00 10,3 8,7 11 6 26 14 SSW 1020,4 0 0,0
13.11.2018 06:00:00 10,0 8,5 12 6 22 12 SSW 1019,8 0 0,0
13.11.2018 05:00:00 9,8 8,3 11 6 17 9 SSW 1019,3 0 0,0
13.11.2018 04:00:00 9,7 8,2 9 5 17 9 SSW 1019,1 0 0,0
13.11.2018 03:00:00 9,4 8,1 8 4 16 8 S 1019,2 0 0,0
13.11.2018 02:00:00 9,0 8,1 8 4 14 8 S 1018,9 0 0,0
13.11.2018 01:00:00 9,0 8,2 7 4 15 8 S 1018,6 0 0,0
13.11.2018 00:00:00 9,0 8,2 11 6 16 8 S 1018,7 0 0,0
12.11.2018 23:00:00 8,8 8,3 8 4 11 6 S 1018,6 0 0,0
12.11.2018 22:00:00 8,7 8,4 5 3 11 6 S 1018,2 0 0,0
12.11.2018 21:00:00 8,7 8,4 7 4 11 6 SSE 1018,5 0 0,0
12.11.2018 20:00:00 9,3 8,9 7 4 11 6 S 1018,2 0 0,0
12.11.2018 19:00:00 9,6 9,3 7 4 10 5 S 1017,6 0 0,0
12.11.2018 18:00:00 9,9 9,4 4 2 9 5 S 1016,3 0 0,0
12.11.2018 17:00:00 10,3 9,5 4 2 11 6 SW 1015,8 - -
12.11.2018 16:00:00 11,0 9,9 5 3 18 10 WSW 1015,0 0 0,0
12.11.2018 15:00:00 11,4 10,7 6 3 10 6 WSW 1014,4 0 0,0
12.11.2018 14:00:00 11,4 10,8 4 2 10 6 W 1013,6 0 0,4
12.11.2018 13:00:00 11,1 10,8 7 4 10 5 WSW 1013,9 0 0,7
12.11.2018 12:00:00 10,9 10,7 6 3 11 6 W 1013,2 0 0,6
12.11.2018 11:00:00 10,9 10,9 0 0 5 3 N 1012,5 0 0,1
12.11.2018 10:00:00 10,6 10,6 4 2 5 3 SW 1012,6 0 2,2
12.11.2018 09:00:00 10,3 10,3 0 0 5 3 N 1012,2 0 1,2
12.11.2018 08:00:00 10,2 10,0 4 2 5 3 ESE 1012,3 0 0,8
12.11.2018 07:00:00 10,2 10,0 4 2 9 5 SSE 1012,1 0 0,6
12.11.2018 06:00:00 10,0 9,8 4 2 7 4 ESE 1011,8 0 0,6
12.11.2018 05:00:00 10,4 9,9 6 3 11 6 SE 1012,0 0 0,2

tt = Température de l'air
td = dewpoint
ff = Vitesse du vent
fx = gusts
dd = Direction du vent
ppp = reduced air pressure
sd = Ensoleillement
rr = Quantités de précipitations

stations d'obs. à proximité